createdAt,value
2019-03-03T00:01:11.814Z,136.92
2019-03-03T00:03:41.607Z,131.30
2019-03-03T00:06:11.359Z,128.05
2019-03-03T00:08:41.134Z,124.72
2019-03-03T00:11:10.880Z,123.77
2019-03-03T00:13:40.620Z,123.70
2019-03-03T00:16:10.350Z,113.97
2019-03-03T00:18:40.087Z,120.02
2019-03-03T00:21:11.426Z,115.77
2019-03-03T00:23:42.726Z,118.35
2019-03-03T00:26:13.895Z,115.52
2019-03-03T00:28:43.638Z,118.47
2019-03-03T00:31:16.214Z,113.60
2019-03-03T00:33:45.959Z,114.57
2019-03-03T00:36:15.691Z,110.80
2019-03-03T00:38:55.837Z,116.12
2019-03-03T00:41:37.196Z,115.47
2019-03-03T00:44:11.243Z,111.68
2019-03-03T00:46:45.470Z,108.35
2019-03-03T00:49:22.978Z,110.80
2019-03-03T00:51:57.186Z,108.12
2019-03-03T00:54:28.486Z,109.42
2019-03-03T00:57:05.339Z,110.15
2019-03-03T00:59:42.669Z,110.42
2019-03-03T01:02:14.021Z,108.65
2019-03-03T01:04:51.061Z,109.45
2019-03-03T01:07:25.601Z,103.67
2019-03-03T01:09:59.679Z,109.32
2019-03-03T01:12:31.031Z,103.00
2019-03-03T01:15:02.342Z,105.72
2019-03-03T01:17:42.518Z,108.42
2019-03-03T01:20:16.514Z,102.30
2019-03-03T01:23:05.542Z,108.50
2019-03-03T01:25:35.278Z,111.15
2019-03-03T01:28:05.018Z,108.67
2019-03-03T01:30:34.812Z,103.50
2019-03-03T01:33:04.549Z,103.53
2019-03-03T01:35:34.285Z,107.75
2019-03-03T01:38:04.058Z,104.67
2019-03-03T01:40:33.798Z,103.97
2019-03-03T01:43:03.533Z,102.07
2019-03-03T01:45:33.322Z,101.37
2019-03-03T01:48:03.069Z,101.70
2019-03-03T01:50:32.793Z,100.40
2019-03-03T01:53:02.582Z,100.55
2019-03-03T01:55:32.313Z,99.05
2019-03-03T01:58:02.037Z,96.23
2019-03-03T02:00:31.810Z,97.45
2019-03-03T02:03:01.573Z,98.50
2019-03-03T02:05:32.787Z,93.95
2019-03-03T02:08:03.638Z,94.35
2019-03-03T02:10:33.615Z,85.97
2019-03-03T02:13:04.436Z,89.97
2019-03-03T02:15:34.198Z,87.88
2019-03-03T02:18:04.052Z,89.67
2019-03-03T02:20:33.831Z,90.70
2019-03-03T02:23:03.568Z,86.13
2019-03-03T02:25:33.309Z,86.42
2019-03-03T02:28:03.063Z,86.85
2019-03-03T02:30:32.804Z,89.55
2019-03-03T02:33:02.595Z,84.85
2019-03-03T02:35:32.316Z,85.27
2019-03-03T02:38:02.095Z,82.62
2019-03-03T02:40:31.829Z,83.07
2019-03-03T02:43:01.577Z,86.05
2019-03-03T02:45:32.114Z,88.60
2019-03-03T02:48:01.846Z,78.83
2019-03-03T02:50:31.628Z,84.40
2019-03-03T02:53:01.350Z,86.42
2019-03-03T02:55:31.131Z,81.25
2019-03-03T02:58:00.873Z,79.17
2019-03-03T03:00:30.613Z,79.97
2019-03-03T03:03:01.934Z,76.37
2019-03-03T03:05:49.867Z,82.67
2019-03-03T03:08:24.051Z,79.55
2019-03-03T03:10:55.410Z,80.05
2019-03-03T03:13:42.804Z,81.22
2019-03-03T03:16:17.139Z,76.53
2019-03-03T03:18:48.465Z,75.90
2019-03-03T03:21:19.800Z,75.87
2019-03-03T03:23:57.093Z,74.60
2019-03-03T03:26:34.211Z,68.87
2019-03-03T03:29:21.750Z,73.17
2019-03-03T03:31:53.111Z,72.10
2019-03-03T03:34:27.293Z,68.90
2019-03-03T03:37:15.069Z,67.67
2019-03-03T03:39:49.342Z,69.45
2019-03-03T03:42:26.410Z,71.90
2019-03-03T03:45:09.679Z,63.90
2019-03-03T03:47:52.844Z,64.53
2019-03-03T03:50:24.151Z,63.73
2019-03-03T03:53:01.079Z,66.07
2019-03-03T03:55:32.587Z,64.27
2019-03-03T03:58:20.541Z,66.57
2019-03-03T04:01:09.858Z,63.53
2019-03-03T04:03:46.963Z,64.70
2019-03-03T04:06:21.025Z,68.15
2019-03-03T04:08:52.376Z,70.45
2019-03-03T04:11:40.242Z,64.10
2019-03-03T04:14:17.715Z,68.00
2019-03-03T04:16:49.015Z,69.67
2019-03-03T04:19:23.074Z,63.40
2019-03-03T04:22:04.209Z,65.50
2019-03-03T04:24:41.298Z,65.22
2019-03-03T04:27:18.134Z,65.35
2019-03-03T04:29:55.304Z,65.43
2019-03-03T04:32:35.513Z,61.10
2019-03-03T04:35:08.150Z,63.98
2019-03-03T04:37:45.382Z,64.93
2019-03-03T04:40:19.527Z,65.42
2019-03-03T04:42:59.530Z,62.90
2019-03-03T04:45:36.847Z,61.13
2019-03-03T04:48:08.929Z,59.88
2019-03-03T04:50:43.242Z,62.00
2019-03-03T04:53:17.520Z,62.37
2019-03-03T04:56:05.282Z,65.40
2019-03-03T04:58:39.528Z,59.15
2019-03-03T05:01:27.070Z,62.70
2019-03-03T05:04:01.153Z,60.83
2019-03-03T05:06:41.774Z,60.52
2019-03-03T05:09:29.719Z,59.10
2019-03-03T05:12:25.015Z,56.90
2019-03-03T05:14:59.524Z,64.67
2019-03-03T05:17:43.170Z,58.58
2019-03-03T05:20:14.481Z,57.30
2019-03-03T05:22:44.254Z,58.98
2019-03-03T05:25:13.999Z,58.05
2019-03-03T05:27:43.736Z,55.58
2019-03-03T05:30:14.886Z,55.30
2019-03-03T05:32:44.618Z,56.23
2019-03-03T05:35:14.725Z,51.93
2019-03-03T05:37:44.758Z,55.65
2019-03-03T05:40:14.490Z,57.25
2019-03-03T05:42:44.281Z,55.67
2019-03-03T05:45:14.021Z,56.88
2019-03-03T05:47:43.746Z,56.20
2019-03-03T05:50:13.511Z,55.43
2019-03-03T05:52:43.229Z,55.43
2019-03-03T05:55:13.018Z,53.68
2019-03-03T05:57:42.767Z,56.05
2019-03-03T06:00:13.855Z,52.48
2019-03-03T06:02:43.587Z,55.67
2019-03-03T06:05:13.313Z,51.75
2019-03-03T06:07:43.042Z,54.90
2019-03-03T06:10:12.762Z,52.58
2019-03-03T06:12:42.540Z,51.53
2019-03-03T06:15:14.381Z,53.90
2019-03-03T06:17:45.350Z,55.43
2019-03-03T06:20:16.494Z,54.77
2019-03-03T06:22:46.425Z,55.08
2019-03-03T06:25:16.158Z,53.30
2019-03-03T06:27:45.943Z,58.92
2019-03-03T06:30:16.282Z,55.30
2019-03-03T06:32:46.058Z,51.33
2019-03-03T06:35:15.807Z,58.30
2019-03-03T06:37:45.555Z,57.97
2019-03-03T06:40:15.594Z,58.60
2019-03-03T06:42:45.322Z,57.50
2019-03-03T06:45:15.230Z,60.12
2019-03-03T06:47:44.954Z,57.98
2019-03-03T06:50:16.402Z,63.40
2019-03-03T06:52:46.146Z,59.50
2019-03-03T06:55:15.914Z,59.65
2019-03-03T06:57:45.655Z,59.53
2019-03-03T07:00:16.940Z,60.20
2019-03-03T07:02:46.674Z,60.52
2019-03-03T07:05:16.408Z,59.85
2019-03-03T07:07:46.133Z,57.13
2019-03-03T07:10:16.866Z,61.40
2019-03-03T07:12:46.630Z,59.40
2019-03-03T07:15:17.258Z,61.20
2019-03-03T07:17:47.033Z,65.57
2019-03-03T07:20:16.773Z,62.85
2019-03-03T07:22:46.517Z,63.13
2019-03-03T07:25:16.259Z,60.25
2019-03-03T07:27:46.026Z,66.62
2019-03-03T07:30:16.466Z,68.78
2019-03-03T07:32:47.809Z,66.65
2019-03-03T07:35:17.537Z,63.77
2019-03-03T07:37:47.270Z,66.42
2019-03-03T07:40:17.014Z,71.28
2019-03-03T07:42:46.742Z,70.62
2019-03-03T07:45:19.058Z,69.87
2019-03-03T07:47:48.806Z,72.60
2019-03-03T07:50:18.554Z,78.80
2019-03-03T07:52:48.277Z,77.23
2019-03-03T07:55:18.027Z,77.50
2019-03-03T07:57:47.893Z,79.10
2019-03-03T08:00:17.689Z,81.42
2019-03-03T08:02:47.370Z,81.78
2019-03-03T08:05:17.102Z,92.45
2019-03-03T08:07:46.898Z,89.05
2019-03-03T08:10:16.735Z,83.65
2019-03-03T08:12:46.474Z,81.30
2019-03-03T08:15:18.261Z,87.88
2019-03-03T08:17:48.002Z,84.85
2019-03-03T08:20:18.497Z,80.20
2019-03-03T08:22:48.237Z,87.53
2019-03-03T08:25:18.023Z,82.97
2019-03-03T08:27:47.745Z,85.92
2019-03-03T08:30:18.618Z,83.12
2019-03-03T08:32:48.343Z,81.65
2019-03-03T08:35:31.965Z,85.03
2019-03-03T08:38:01.715Z,86.22
2019-03-03T08:40:31.460Z,83.07
2019-03-03T08:43:05.523Z,83.90
2019-03-03T08:45:36.861Z,79.07
2019-03-03T08:48:10.859Z,77.42
2019-03-03T08:50:49.030Z,74.37
2019-03-03T08:53:29.523Z,77.92
2019-03-03T08:56:06.806Z,71.47
2019-03-03T08:58:44.004Z,65.45
2019-03-03T09:01:31.738Z,76.80
2019-03-03T09:04:06.066Z,74.72
2019-03-03T09:06:40.422Z,63.28
2019-03-03T09:09:13.721Z,68.83
2019-03-03T09:11:45.074Z,61.63
2019-03-03T09:14:34.740Z,62.55
2019-03-03T09:17:07.090Z,61.68
2019-03-03T09:19:44.493Z,55.60
2019-03-03T09:22:15.833Z,52.73
2019-03-03T09:24:53.144Z,51.18
2019-03-03T09:27:30.293Z,49.85
2019-03-03T09:30:17.958Z,48.52
2019-03-03T09:33:05.826Z,50.50
2019-03-03T09:35:37.994Z,44.93
2019-03-03T09:38:12.056Z,46.98
2019-03-03T09:40:58.642Z,43.30
2019-03-03T09:43:32.749Z,39.95
2019-03-03T09:46:19.353Z,40.23
2019-03-03T09:48:53.829Z,42.48
2019-03-03T09:51:25.134Z,34.15
2019-03-03T09:53:56.478Z,37.10
2019-03-03T09:56:36.553Z,35.05
2019-03-03T09:59:08.040Z,31.02
2019-03-03T10:01:48.864Z,30.12
2019-03-03T10:04:36.386Z,29.03
2019-03-03T10:07:07.701Z,30.23
2019-03-03T10:09:39.076Z,26.33
2019-03-03T10:12:10.385Z,25.43
2019-03-03T10:14:41.744Z,25.27
2019-03-03T10:17:22.258Z,24.85
2019-03-03T10:20:03.067Z,23.97
2019-03-03T10:22:35.719Z,20.65
2019-03-03T10:25:10.242Z,18.10
2019-03-03T10:27:41.550Z,18.82
2019-03-03T10:30:26.403Z,19.07
2019-03-03T10:33:03.742Z,15.78
2019-03-03T10:35:38.047Z,15.13
2019-03-03T10:38:12.088Z,16.15
2019-03-03T10:40:43.435Z,21.93
2019-03-03T10:43:20.862Z,15.10
2019-03-03T10:46:10.091Z,15.63
2019-03-03T10:48:55.013Z,14.20
2019-03-03T10:51:26.365Z,15.05
2019-03-03T10:54:11.618Z,15.20
2019-03-03T10:56:45.977Z,16.00
2019-03-03T10:59:23.308Z,15.45
2019-03-03T11:02:03.289Z,11.63
2019-03-03T11:04:50.578Z,11.20
2019-03-03T11:07:21.925Z,10.95
2019-03-03T11:10:05.741Z,11.95
2019-03-03T11:12:40.021Z,12.05
2019-03-03T11:15:33.849Z,11.83
2019-03-03T11:18:05.212Z,12.33
2019-03-03T11:20:42.261Z,12.05
2019-03-03T11:23:19.403Z,10.90
2019-03-03T11:25:53.669Z,11.80
2019-03-03T11:28:27.703Z,11.48
2019-03-03T11:30:59.298Z,12.73
2019-03-03T11:33:42.655Z,13.60
2019-03-03T11:36:19.978Z,14.25
2019-03-03T11:39:09.562Z,14.93
2019-03-03T11:41:57.453Z,15.58
2019-03-03T11:44:37.770Z,13.78
2019-03-03T11:47:09.082Z,15.35
2019-03-03T11:49:58.714Z,12.03
2019-03-03T11:52:36.655Z,11.22
2019-03-03T11:55:12.284Z,14.45
2019-03-03T11:57:48.253Z,13.45
2019-03-03T12:00:19.993Z,10.90
2019-03-03T12:02:56.775Z,11.18
2019-03-03T12:05:31.575Z,12.07
2019-03-03T12:08:02.878Z,12.93
2019-03-03T12:10:34.264Z,11.75
2019-03-03T12:13:05.525Z,14.03
2019-03-03T12:15:39.827Z,14.10
2019-03-03T12:18:17.176Z,11.75
2019-03-03T12:20:54.614Z,10.35
2019-03-03T12:23:43.923Z,12.20
2019-03-03T12:26:18.206Z,12.80
2019-03-03T12:28:58.551Z,11.05
2019-03-03T12:31:50.775Z,10.88
2019-03-03T12:34:38.378Z,10.63
2019-03-03T12:37:09.742Z,11.08
2019-03-03T12:39:47.275Z,12.78
2019-03-03T12:42:24.558Z,10.70
2019-03-03T12:45:04.986Z,12.13
2019-03-03T12:47:52.539Z,10.53
2019-03-03T12:50:41.935Z,12.03
2019-03-03T12:53:18.925Z,12.20
2019-03-03T12:55:56.414Z,12.28
2019-03-03T12:58:39.619Z,10.20
2019-03-03T13:01:13.905Z,10.93
2019-03-03T13:03:48.050Z,9.78
2019-03-03T13:06:25.387Z,12.50
2019-03-03T13:09:00.051Z,11.45
2019-03-03T13:11:47.543Z,13.70
2019-03-03T13:14:28.102Z,9.48
2019-03-03T13:17:15.610Z,8.83
2019-03-03T13:19:46.947Z,8.63
2019-03-03T13:22:18.262Z,10.90
2019-03-03T13:25:04.698Z,9.28
2019-03-03T13:27:52.441Z,7.95
2019-03-03T13:30:29.836Z,9.33
2019-03-03T13:33:16.433Z,9.05
2019-03-03T13:36:04.186Z,7.40
2019-03-03T13:38:50.806Z,9.58
2019-03-03T13:41:27.926Z,7.08
2019-03-03T13:43:57.654Z,9.05
2019-03-03T13:46:27.483Z,9.88
2019-03-03T13:48:57.226Z,9.17
2019-03-03T13:51:27.276Z,9.30
2019-03-03T13:53:57.398Z,10.30
2019-03-03T13:56:27.171Z,9.88
2019-03-03T13:58:56.998Z,10.78
2019-03-03T14:01:26.739Z,9.25
2019-03-03T14:03:56.478Z,7.95
2019-03-03T14:06:26.312Z,6.30
2019-03-03T14:08:56.062Z,7.95
2019-03-03T14:11:29.088Z,8.63
2019-03-03T14:13:58.850Z,6.25
2019-03-03T14:16:28.584Z,8.60
2019-03-03T14:18:58.309Z,6.87
2019-03-03T14:21:28.048Z,7.80
2019-03-03T14:23:57.766Z,8.17
2019-03-03T14:26:27.543Z,8.23
2019-03-03T14:28:57.278Z,10.53
2019-03-03T14:31:27.046Z,9.53
2019-03-03T14:33:56.783Z,14.43
2019-03-03T14:36:26.549Z,13.15
2019-03-03T14:38:56.286Z,10.20
2019-03-03T14:41:27.011Z,9.95
2019-03-03T14:43:56.777Z,10.90
2019-03-03T14:46:26.503Z,10.25
2019-03-03T14:48:56.277Z,10.43
2019-03-03T14:51:26.007Z,12.23
2019-03-03T14:53:55.738Z,10.80
2019-03-03T14:56:25.473Z,13.62
2019-03-03T14:58:55.198Z,11.93
2019-03-03T15:01:24.966Z,10.15
2019-03-03T15:03:54.689Z,10.17
2019-03-03T15:06:24.870Z,12.57
2019-03-03T15:08:54.690Z,7.42
2019-03-03T15:11:24.417Z,9.65
2019-03-03T15:13:54.146Z,11.97
2019-03-03T15:16:23.925Z,9.28
2019-03-03T15:18:53.656Z,8.77
2019-03-03T15:21:25.347Z,15.35
2019-03-03T15:23:54.782Z,15.78
2019-03-03T15:26:24.513Z,11.27
2019-03-03T15:28:54.247Z,10.77
2019-03-03T15:31:25.039Z,10.63
2019-03-03T15:33:54.761Z,12.88
2019-03-03T15:36:24.494Z,9.83
2019-03-03T15:38:55.262Z,9.78
2019-03-03T15:41:24.982Z,9.33
2019-03-03T15:43:54.708Z,11.40
2019-03-03T15:46:26.142Z,12.68
2019-03-03T15:48:56.021Z,13.25
2019-03-03T15:51:25.757Z,13.32
2019-03-03T15:53:55.638Z,12.78
2019-03-03T15:56:25.379Z,12.47
2019-03-03T15:58:55.821Z,13.38
2019-03-03T16:01:25.781Z,11.30
2019-03-03T16:03:55.550Z,11.08
2019-03-03T16:06:25.285Z,10.63
2019-03-03T16:08:55.165Z,13.45
2019-03-03T16:11:24.886Z,13.03
2019-03-03T16:13:54.618Z,12.13
2019-03-03T16:16:24.371Z,10.98
2019-03-03T16:18:55.396Z,12.07
2019-03-03T16:21:25.182Z,9.38
2019-03-03T16:23:54.903Z,12.78
2019-03-03T16:26:24.664Z,14.05
2019-03-03T16:28:54.387Z,17.77
2019-03-03T16:31:24.135Z,10.80
2019-03-03T16:33:54.902Z,11.00
2019-03-03T16:36:24.630Z,11.60
2019-03-03T16:38:54.359Z,14.18
2019-03-03T16:41:25.255Z,15.72
2019-03-03T16:43:55.321Z,15.28
2019-03-03T16:46:25.206Z,18.15
2019-03-03T16:48:54.988Z,19.37
2019-03-03T16:51:24.709Z,17.75
2019-03-03T16:53:54.452Z,18.17
2019-03-03T16:56:24.302Z,15.40
2019-03-03T16:58:54.035Z,17.00
2019-03-03T17:01:23.934Z,14.70
2019-03-03T17:03:53.806Z,16.48
2019-03-03T17:06:23.534Z,17.32
2019-03-03T17:08:53.265Z,16.70
2019-03-03T17:11:25.035Z,17.92
2019-03-03T17:13:56.358Z,20.48
2019-03-03T17:16:26.267Z,20.03
2019-03-03T17:18:57.558Z,19.32
2019-03-03T17:21:27.331Z,19.80
2019-03-03T17:23:57.082Z,20.32
2019-03-03T17:26:26.880Z,21.05
2019-03-03T17:28:56.630Z,19.25
2019-03-03T17:31:26.376Z,21.62
2019-03-03T17:33:56.395Z,19.80
2019-03-03T17:36:26.139Z,19.55
2019-03-03T17:38:55.962Z,18.37
2019-03-03T17:41:26.682Z,21.15
2019-03-03T17:43:57.280Z,23.05
2019-03-03T17:46:27.030Z,23.67
2019-03-03T17:48:56.771Z,20.70
2019-03-03T17:51:26.505Z,18.87
2019-03-03T17:53:56.235Z,20.72
2019-03-03T17:56:26.110Z,19.85
2019-03-03T17:58:55.851Z,18.90
2019-03-03T18:01:25.599Z,20.40
2019-03-03T18:03:57.786Z,16.75
2019-03-03T18:06:27.578Z,22.30
2019-03-03T18:08:57.338Z,23.00
2019-03-03T18:11:27.126Z,20.05
2019-03-03T18:13:56.862Z,23.45
2019-03-03T18:16:26.599Z,20.95
2019-03-03T18:18:56.343Z,21.12
2019-03-03T18:21:26.173Z,20.40
2019-03-03T18:23:56.090Z,17.67
2019-03-03T18:26:25.839Z,17.30
2019-03-03T18:28:56.620Z,19.82
2019-03-03T18:31:26.364Z,16.50
2019-03-03T18:33:56.136Z,21.23
2019-03-03T18:36:25.862Z,22.77
2019-03-03T18:38:55.606Z,21.48
2019-03-03T18:41:25.373Z,23.10
2019-03-03T18:43:55.298Z,18.48
2019-03-03T18:46:25.042Z,21.82
2019-03-03T18:48:54.814Z,20.77
2019-03-03T18:51:24.555Z,19.07
2019-03-03T18:53:54.304Z,20.57
2019-03-03T18:56:25.146Z,21.00
2019-03-03T18:58:54.902Z,21.85
2019-03-03T19:01:24.799Z,21.20
2019-03-03T19:03:54.539Z,19.92
2019-03-03T19:06:24.309Z,23.55
2019-03-03T19:08:54.155Z,24.20
2019-03-03T19:11:23.893Z,25.75
2019-03-03T19:13:53.679Z,21.25
2019-03-03T19:16:23.437Z,22.90
2019-03-03T19:18:53.330Z,24.15
2019-03-03T19:21:23.131Z,26.60
2019-03-03T19:23:52.898Z,26.17
2019-03-03T19:26:22.703Z,24.00
2019-03-03T19:28:52.434Z,25.32
2019-03-03T19:31:22.564Z,22.87
2019-03-03T19:33:54.584Z,22.63
2019-03-03T19:36:24.324Z,24.87
2019-03-03T19:38:54.184Z,20.57
2019-03-03T19:41:23.920Z,25.85
2019-03-03T19:43:57.769Z,22.95
2019-03-03T19:46:28.314Z,21.48
2019-03-03T19:49:06.489Z,24.82
2019-03-03T19:51:36.918Z,21.17
2019-03-03T19:54:06.789Z,23.25
2019-03-03T19:56:36.699Z,23.67
2019-03-03T19:59:06.683Z,21.47
2019-03-03T20:01:36.398Z,22.35
2019-03-03T20:04:07.122Z,21.02
2019-03-03T20:06:36.931Z,21.35
2019-03-03T20:09:07.585Z,21.45
2019-03-03T20:11:38.958Z,20.05
2019-03-03T20:14:09.770Z,22.07
2019-03-03T20:16:39.550Z,19.40
2019-03-03T20:19:09.327Z,22.02
2019-03-03T20:21:39.237Z,20.85
2019-03-03T20:24:08.973Z,21.17
2019-03-03T20:26:38.706Z,22.62
2019-03-03T20:29:10.969Z,20.75
2019-03-03T20:31:40.407Z,21.27
2019-03-03T20:34:12.082Z,21.68
2019-03-03T20:36:41.840Z,19.27
2019-03-03T20:39:12.274Z,22.85
2019-03-03T20:41:42.110Z,21.75
2019-03-03T20:44:11.899Z,21.90
2019-03-03T20:46:41.626Z,20.80
2019-03-03T20:49:11.370Z,19.80
2019-03-03T20:51:41.128Z,19.85
2019-03-03T20:54:10.874Z,20.52
2019-03-03T20:56:40.774Z,25.20
2019-03-03T20:59:11.314Z,20.20
2019-03-03T21:01:41.093Z,20.17
2019-03-03T21:04:10.827Z,22.00
2019-03-03T21:06:40.585Z,17.65
2019-03-03T21:09:10.828Z,21.80
2019-03-03T21:11:42.163Z,18.20
2019-03-03T21:14:11.931Z,20.50
2019-03-03T21:16:41.671Z,17.82
2019-03-03T21:19:11.403Z,18.23
2019-03-03T21:21:41.130Z,17.50
2019-03-03T21:24:10.897Z,17.65
2019-03-03T21:26:40.618Z,15.00
2019-03-03T21:29:10.365Z,16.32
2019-03-03T21:31:40.099Z,17.90
2019-03-03T21:34:09.867Z,18.37
2019-03-03T21:36:39.598Z,15.50
2019-03-03T21:39:09.445Z,15.75
2019-03-03T21:41:40.781Z,18.35
2019-03-03T21:44:10.510Z,17.70
2019-03-03T21:46:40.330Z,19.90
2019-03-03T21:49:10.054Z,20.30
2019-03-03T21:51:39.826Z,20.97
2019-03-03T21:54:09.558Z,21.48
2019-03-03T21:56:39.291Z,17.73
2019-03-03T21:59:09.034Z,20.03
2019-03-03T22:01:38.786Z,20.30
2019-03-03T22:04:08.521Z,17.75
2019-03-03T22:06:38.258Z,16.70
2019-03-03T22:09:09.842Z,18.32
2019-03-03T22:11:41.130Z,17.15
2019-03-03T22:14:10.899Z,15.35
2019-03-03T22:16:40.620Z,15.23
2019-03-03T22:19:10.367Z,13.95
2019-03-03T22:21:40.098Z,18.05
2019-03-03T22:24:09.828Z,16.10
2019-03-03T22:26:39.704Z,14.25
2019-03-03T22:29:09.433Z,15.68
2019-03-03T22:31:39.199Z,14.07
2019-03-03T22:34:09.223Z,15.88
2019-03-03T22:36:39.142Z,15.43
2019-03-03T22:39:09.171Z,13.32
2019-03-03T22:41:39.455Z,14.80
2019-03-03T22:44:09.182Z,13.95
2019-03-03T22:46:38.946Z,15.78
2019-03-03T22:49:08.675Z,13.93
2019-03-03T22:51:38.433Z,15.87
2019-03-03T22:54:08.533Z,14.60
2019-03-03T22:56:38.262Z,18.85
2019-03-03T22:59:08.040Z,14.60
2019-03-03T23:01:38.177Z,13.57
2019-03-03T23:04:10.981Z,16.73
2019-03-03T23:06:46.361Z,18.98
2019-03-03T23:09:21.930Z,14.93
2019-03-03T23:12:03.544Z,14.40
2019-03-03T23:14:36.266Z,14.65
2019-03-03T23:17:14.967Z,19.20
2019-03-03T23:19:56.742Z,13.53
2019-03-03T23:22:35.246Z,14.78
2019-03-03T23:25:14.075Z,16.87
2019-03-03T23:27:43.804Z,16.57
2019-03-03T23:30:13.574Z,13.83
2019-03-03T23:32:43.303Z,17.02
2019-03-03T23:35:13.076Z,15.68
2019-03-03T23:37:42.797Z,14.73
2019-03-03T23:40:12.531Z,16.20
2019-03-03T23:42:42.264Z,12.98
2019-03-03T23:45:12.093Z,15.85
2019-03-03T23:47:41.869Z,15.78
2019-03-03T23:50:11.586Z,13.55
2019-03-03T23:52:41.318Z,14.90
2019-03-03T23:55:12.732Z,14.15
2019-03-03T23:57:42.490Z,12.33
